Timeline UpdatesTrip UpdatesNews PostsPvt Posts♥♥Travel TipsAdmin PostsConv PostsFollowed PostsChat RequestsBlog PostsPNR Posts

Disclaimer
Search
 
 
Sat Nov 1, 2014 01:31:54 ISTHomeTrainsΣChainsAtlasPNRForumGalleryNewsFAQTripsMembersLoginFeedback
No Recent News for this Train
Other Trains in the News **new
Latest...
there are good chances of tkt to be confmed upto WL 80. in non peak season. condition may be different for diwali or peak season.
Wed Feb 26, 2014 (02:31PM)
⇐ Return Journey: Train# 19020

19019/Mumbai Bandra Terminus- Dehradun Express

Time-Table HAS CHANGED.
Sep 03 2014 (9:51AM)
Change Departure Station:
Change Arrival Station:
Post a Train Travel TipPost a Train Travel Tip **new
Post a Comment/Question/Picture/VideoPost a Comment/Question/Picture/Video
Pantry/Catering
✕ NO Pantry Car
✓ Catering Avbl
Loco/Rake Reversals
SRE/Saharanpur Junction (6); LRJ/Laksar Junction (4);
RSA - Rake Sharing
Rake/Coach Composition
LOCO-SLR-S9-S8-S7-S6-S5-S4-S3-S2-S1-AB1-GEN-GEN-HCPV-SLR;;; S9,S8,S7,S6 -(BANDRA TERMINUS-HARIDWAR); Rest Coaches-(BANDRA TERMINUS-DEHRADUN) ; Entry# 571623.
Loco
GZB WAP7 - (BDTS - NZM) TKD WDP 3A -...
Read more...
(NZM - DDN).
News    PNR    Forum    Time-Table    Availability    Fare Chart    Map    Arr/Dep History    Trips    Gallery    ΣChains    X/O    Timeline    
Travel Time: 4h 0m    7 halts    Distance: 233 km    Avg Speed: 58 km/hr
Type: Mail/Express
Zone: WR/Western
Departs @ 00:40 (Avg 7m late)
Platform# 6
SMTWTFS
Mumbai Borivali/BVI 
Arrives @ 04:40 (Avg 1m late)
Platform# 1
SMTWTFS
Surat/ST 

7 halts. 40 intermediate Stations between Mumbai Borivali and Surat

Show ALL intermediate Stations  Show Old Time-Table

#TrkCodeStation NameX/OArrivesAvgDepartsAvgHaltPFDay#KmSpeedElevZoneAddress
1/==/BDTSMumbai Bandra Terminus (5)  -00:05+011-18.7374mWRMumbai 400050, Maharashtra
2/==/BVIMumbai Borivali (8)»O  00:38 00:35+700:40+72 5m610.05019mWRMumbai - 400092, Maharashtra
3/==/BSRVasai Road (7)O  01:03 01:01+401:05 01:03+42m3117.4747mWRVasai 401202, Maharashtra
4/==/PLGPalghar (3)X  01:35+1401:37+172m1157.05219mWRPalghar, Maharashtra
5/==/DRDDahanu Road (5)X  02:15+902:17+92m1190.09112mWRDahanu, Maharashtra
6/==/VAPIVapi (3)X  02:49+1102:51+122m11138.55427mWRVapi, Gujarat
7/==/BLValsad (3)X  03:23 03:20+603:25+102 5m11164.75715mWRValsad, Gujarat
8/==/BIMBilimora Junction (4)X  03:44+503:46+62m11182.77911mWRBilimora, Gujarat
9/==/NVSNavsari (3)X  04:02+604:04+62m11203.84914mWRNavsari, Gujarat
10/==/STSurat (4)•X  04:40+104:45+25m11233.47219mWRSurat 395001, Gujarat
11/==/KSBKosamba Junction (3)05:11+1005:13+102m--1264.813930mWRKosamba, Gujarat
12/==/AKVAnkleshwar Junction (4)X  05:19 05:21+1605:21 05:23+162m11283.44319mWRAnkleshwar, Gujarat
13/==/BHBharuch Junction (5)X  05:34 05:36+1505:36 05:38+152m31292.78719mWRBharuch, Gujarat
14/==/MYGMiyagam Karjan (2)  06:04 06:06+1606:06 06:08+152m21333.45629mWRKarjan, Gujarat
15/==/BRCVadodara Junction (7)XO  06:40+1806:50+1810m21363.26736mWRVadodara 390005, Gujarat
16/==/SMLASamlaya Junction (3)  07:12 07:14+2307:14 07:16+222m21389.86767mWRVadodara, Gujarat
17/==/CPNChampaner Road Junction  07:24 07:26+2107:26 07:28+212m21401.05478mWRPanchmahal, Gujarat
18/==/DRLDerolX  07:40 07:42+1507:42 07:44+142m21413.57681mWRKalol, Gujarat
19/==/KRSAKharsaliya (2)X  07:52 07:54+2007:54 07:56+202m21426.227107mWRPanchmahal, Gujarat
20/==/GDAGodhra Junction (3)O  08:20+808:25+85m21437.158122mWRGodhra, Gujarat
21/==/SATSant Road (2)  08:44 08:46+2508:46 08:47+262 1m21457.565169mWROrwara, Gujarat
22/==/PPDPiplod Junction  08:56 08:58+2708:58 08:59+292 1m21469.368209mWRPiplod, Gujarat
23/==/LMKLimkhedaXO  09:04 09:06+3109:06 09:08+342m21477.325205mWRLimkheda, Gujarat
24/==/MAMMangal Mahudi (2)X  09:27 09:29+2309:29 09:30+232 1m21485.997248mWRDabhada, Gujarat
25/==/DHDDahod (3)XO  09:50 09:45+2909:55 09:50+295m21510.245313mWRDahod, Gujarat
26/==/BIOBordi (2)  10:02 10:04+2810:04 10:05+282 1m--1520.868289mWRNational Highway 59, Gujarat
27/==/ANASAnas (2)X  10:10 10:12+2810:12 10:13+282 1m--1528.873288mWRMadhya Pradesh 389154 ?, Madhya Pradesh
28/==/MGNMeghnagar (3)  10:23 10:25+2910:25 10:27+302m--1543.360317mWRJhabua, Madhya Pradesh
29/==/THDRThandla Road (2)  10:33 10:35+3010:35 10:36+302 1m--1551.364317mWRJhabua, Madhya Pradesh
30/==/PCNPanch Pipila (2)  10:47 10:49+3010:49 10:50+302 1m--1565.252369mWRSH 39A, Madhya Pradesh
31/==/AGRAmargarh (2)  10:59 11:01+2911:01 11:02+292 1m--1574.750410mWRSH 39A, Madhya Pradesh
32/==/BMIBamnia (2)  11:06 11:07+3111:08 11:09+302m--1578.945392mWRBamnia, Madhya Pradesh
33/==/BOGBhairongarh (2)  11:15 11:17+2911:17 11:18+292 1m--1584.965374mWRBhairongarh Railway Station, Madhya Pradesh
34/==/RTIRaoti (2)X  11:27 11:29+3011:29 11:30+302 1m--1596.754409mWRState Highway 39A, Madhya Pradesh
35/==/BILDBildi (2)X  11:36 11:38+3011:38 11:39+312 1m--1603.960422mWRMadhya Pradesh, Madhya Pradesh
36/==/MRNMorwani (2)X  11:46 11:48+3311:48 11:49+332 1m--1612.921459mWRDantoda, Madhya Pradesh
37/==/RTMRatlam Junction (7)X  12:20+2712:40+2720m51623.649495mWRRatlam 457001, Madhya Pradesh
38/==/BODBangrod  12:50 12:52+3112:52 12:53+322 1m--1633.555484mWRRatlam, Madhya Pradesh
39/==/RNHRunkhera  12:59 13:01+3213:01 13:02+322 1m--1640.857478mWRUjjain, Madhya Pradesh
40/==/KUHKhachrod (2)X  13:11 13:13+3213:13 13:15+342m--1651.314497mWRUjjain, Madhya Pradesh
41/==/NADNagda Junction (4)  14:15+214:25+310m11665.157468mWRNagda, Madhya Pradesh
42/==/MEPMahidpur RoadX  14:43+514:45+62m--1682.180493mWCRGogapur, Madhya Pradesh
43/==/LNRLuni RichhaX  14:53+914:55+92m--1692.861471mWCRAlote, Madhya Pradesh
44/==/VMAVikramgarh Alot (2)  15:08+715:10+82m21706.051443mWCRKota Division, Madhya Pradesh
45/==/THURThuria  15:19+815:21+82m--1713.771430mWCRMDR 45, Madhya Pradesh
46/==/CMUChau Mahla (3)X  15:33+915:35+112m21727.866426mWCRJhalawar, Rajasthan
47/==/SVASuwasra (2)X  15:48 15:49+1215:50+142 1m--1743.262450mWCRSuwasra, Madhya Pradesh
48/==/SGZShamgarh (3)X  16:03+1416:08+135m--1756.659463mWCRMandsaur, Madhya Pradesh
49/==/GOHGaroth (2)X  16:18 16:19+1216:20+132 1m21767.572441mWCRMadhya Pradesh 458880, Madhya Pradesh
50/==/BWMBhawani Mandi (3)XO  16:39+1216:41+162m--1790.158384mWCRBhawani Mandi, Madhya Pradesh
51/==/JHWJhalawar Road (3)  16:58+1317:00+142m--1806.657361mWCRJhalawar City, Rajasthan
52/==/RMARamganj Mandi Junction (3)X  17:13+1017:15+152m--1819.042358mWCRRamganj Mandi, Rajasthan
53/==/MKXMorak (2)  17:28+1217:30+132m--1828.068337mWCRMorak, Rajasthan
54/==/DARADaraX  17:43+1517:45+172m--1842.860354mWCRDara, Rajasthan
55/==/DKNTDakaniya Talav (2)O  18:33 18:23+1018:35 18:25+122m11880.914278mWCRKota, Rajasthan
56/==/KOTAKota Junction (5)X  19:00 19:05+019:30 19:35+830m11890.236256mWCRKota, Rajasthan
57|--|GQLGurla  19:39 19:44+1319:41 19:46+132m--1895.753251mWCRSH 33, Rajasthan
58/==/KPTNKeshorai PatanXO  19:50 19:55+1319:52 19:57+132m--1903.686243mWCRSH 33, Rajasthan
59/==/LKELakheri (3)X  20:22 20:30+2020:24 20:32+202m--1950.751228mWCRBundi, Rajasthan
60/==/IDGIndargarh Sumerganj Mandi (2)XO  20:38 20:45+1920:40 20:47+202m--1961.753247mWCRIndargarh, Rajasthan
61/==/SWMSawai Madhopur Junction (4)  21:10 21:28+1521:15 21:30+185 2m--1997.979266mWCRSawai Madhopur, Rajasthan
62/==/MLZMalarnaO  21:43 21:53+2021:45 21:55+192m--11028.145236mWCRSawai Madhopur, Rajasthan
63/==/GGCGangapur City (3)  22:35 22:40+1122:40 22:45+165m211061.889270mWCRGangapur, Rajasthan
64/==/SMBJShri Mahabirji (3)  23:10 23:08+2723:12 23:10+272m--11095.947240mWCRKarauli, Rajasthan
65/==/HANHindaun City (2)O  23:23+2523:25+282m--11106.144230mWCRKarauli, Rajasthan
66/==/BXNBayana Junction (3)X  00:10+1700:15+225m--21139.057198mWCRBayana, Rajasthan
67/==/BTEBharatpur Junction (5)X  00:55 00:59+1201:00+315 1m--21181.025174mWCRBharatpur, Rajasthan
68/==/MTJMathura Junction (10)  02:20+602:25+105m321214.575179mNCRMathura, Uttar Pradesh
69/==/KSVKosi Kalan (3)  02:58+1503:00+152m121256.048189mNCRKosi Kalan, Uttar Pradesh
70/==/PWLPalwal (8)O  03:53+403:55+92m--21298.462200mNRPalwal, Haryana
71/==/ASTAsaoti (5)  04:08 04:06+1304:10 04:08+132m321309.759203mNRAsaoti, Haryana
72/==/BVHBallabgarh (5)  04:20 04:18+1704:22 04:20+172m321319.637203mNRFaridabad, Haryana
73/==/FDBFaridabad (4)O  04:33+1804:35+182m221327.739206mNRold Faridabad, Haryana
74/==/TKDTuglakabad (2)  04:47 04:52+1804:49 04:54+192m221338.845213mNRNear Tughlakabad Metro Station, Delhi NCT
75/==/OKAOkhla (4)O  05:06 05:02+2105:08 05:04+212m--21344.814221mNRIshwar Nagar Mathura Road, Delhi NCT
76/==/NZMDelhi Hazrat Nizamuddin (7)XO05:25 05:20+2005:50+2025 30m121348.542209mNRNew Delhi 110013, Delhi NCT
77/==/SBBSahibabad Junction (5)X  06:11 06:13+4506:13 06:15+472m--21364.522209mNRGhaziabad, Uttar Pradesh
78/==/GZBGhaziabad Junction (6)  06:33+4406:35+452m121371.259217mNRGhaziabad, Uttar Pradesh
79%==%GZNNew Ghaziabad (2)  06:41-06:43-2m--21377.170213mNRGhaziabad, Uttar Pradesh
80%==%MUDMuradnagar (2)  06:53+5706:55+1:042m--21388.967220mNRGhaziabad, Uttar Pradesh
81%==%MDNRModinagar (2)X  07:04+1:0907:06+1:122m--21399.049221mNRGhaziabad, Uttar Pradesh
82%==%MTCMeerut City Junction (6)XO  07:25 07:30+1:0708:30 08:43+4165 73m421418.452229mNRMeerut, Uttar Pradesh
83%--%MUTMeerut Cantt. (2)  08:38 08:48+4608:40 08:50+502m--21422.825230mNRMeerut, Uttar Pradesh
84%--%PQYPabli Khas (1) new halt!!X  09:01+4909:03+532m--21427.433229mNRMeerut, Uttar Pradesh
85%--%DRLADaurala (1) new halt!!X  09:15+4609:17+492m--21433.957232mNRMeerut, Uttar Pradesh
86%--%KATKhatauli (2)  09:58 09:36+4210:00 09:38+442m121451.934239mNRKhatauli, Uttar Pradesh
87%--%JDWJarauda Nara (1) new halt!!X  10:09+3410:10+371m--21469.314245mNRMuzaffarNagar, Uttar Pradesh
88%--%MOZMuzaffarnagar (3)X  10:35 10:30+2610:37 10:32+302m221474.033247mNRMuzaffarNagar, Uttar Pradesh
89%--%BMHRBamanheri (2) new halt!!X  10:41+2710:43+282m--21479.050249mNRMuzaffarnagar, Uttar Pradesh
90%--%DBDDeoband (2)X  11:13 11:06+2111:15 11:08+212m--21498.131258mNRSaharanpur, Uttar Pradesh
91/--/SRESaharanpur Junction (6)XO12:10 12:15+712:45+335 30m521532.277276mNRSaharanpur, Uttar Pradesh
92/==/RKRoorkee (3)  13:15 13:12+2013:17+192 5m121567.038264mNRRoorkee - 247667, Uttarakhand
93/==/LRJLaksar Junction (4)X13:45+1614:10+2825m--21584.869238mNRLaksar, Uttarakhand
94%--%JWPJwalapur  14:30+5314:32+592m121607.713292mNRHaridwar, Uttarakhand
95%--%HWHaridwar Junction (9)X  14:50+4415:15 15:20+4125 30m121611.727294mNRHaridwar, Uttarakhand
96|--|MOTCMotichur (2)  15:25 15:30+4615:27 15:32+492m121616.236312mNRHaridwar, Uttarakhand
97%--%RWLRaiwala Junction (2)  15:48 15:43+5015:50 15:45+532m121622.827361mNRRishikesh, Uttarakhand
98%--%DWODoiwala  16:33 16:31+3616:35 16:33+412m121643.519484mNRDehradun, Uttarakhand
99%--%DDNDehradun (4)  17:35+10-321663.3-648mNRDehradun, Uttarakhand
Scroll to Top
Scroll to Bottom